Terminal Aerodrome Forecast
Issued by NWS Sioux Falls, SD

Home | Current Version | Previous Version | Text Only | Print | Product List | Glossary Off
Versions: 1 2 3 4 5 6 7 8 9 10 11 12 13 14 15 16 17 18 19 20 21 22 23 24 25 26 27 28 29 30

000
FTUS43 KFSD 071720
TAFSUX
TAF
KSUX 071720Z 0718/0818 30022G33KT P6SM SCT100
     FM072000 30023G34KT P6SM BKN050
      TEMPO 0721/0801 3SM -SHSN BLSN BKN030
     FM080100 32025G37KT P6SM SCT030 OVC040
      TEMPO 0801/0804 3SM -SHSN BLSN BKN030
     FM081500 33026G38KT P6SM OVC030=

USA.gov is the U.S. government's official web portal to all federal, state and local government web resources and services.